createdAt,value
2022-10-26T00:01:13.758Z,97.08
2022-10-26T00:03:44.520Z,97.46
2022-10-26T00:06:14.076Z,97.55
2022-10-26T00:08:41.389Z,97.60
2022-10-26T00:11:08.904Z,97.06
2022-10-26T00:13:36.072Z,96.72
2022-10-26T00:16:09.913Z,96.79
2022-10-26T00:18:36.791Z,97.02
2022-10-26T00:21:07.880Z,96.95
2022-10-26T00:23:34.755Z,96.65
2022-10-26T00:26:01.824Z,96.59
2022-10-26T00:28:28.952Z,96.65
2022-10-26T00:31:01.000Z,96.61
2022-10-26T00:33:27.918Z,96.57
2022-10-26T00:35:54.767Z,96.65
2022-10-26T00:38:21.604Z,96.54
2022-10-26T00:40:48.966Z,96.60
2022-10-26T00:43:33.680Z,96.63
2022-10-26T00:46:03.092Z,97.21
2022-10-26T00:48:35.403Z,97.43
2022-10-26T00:51:10.153Z,97.43
2022-10-26T00:53:37.763Z,97.64
2022-10-26T00:56:05.113Z,97.73
2022-10-26T00:58:32.648Z,97.79
2022-10-26T01:00:59.481Z,97.74
2022-10-26T01:03:28.322Z,97.57
2022-10-26T01:05:57.673Z,97.67
2022-10-26T01:08:25.734Z,97.61
2022-10-26T01:10:52.638Z,97.51
2022-10-26T01:13:19.635Z,97.61
2022-10-26T01:16:01.019Z,97.83
2022-10-26T01:18:43.075Z,97.54
2022-10-26T01:21:38.739Z,97.58
2022-10-26T01:24:30.435Z,97.48
2022-10-26T01:27:19.224Z,97.56
2022-10-26T01:30:15.860Z,97.25
2022-10-26T01:32:57.115Z,97.87
2022-10-26T01:35:35.755Z,98.34
2022-10-26T01:38:09.926Z,98.19
2022-10-26T01:40:45.328Z,98.25
2022-10-26T01:43:15.495Z,98.07
2022-10-26T01:45:45.423Z,97.88
2022-10-26T01:48:15.055Z,97.99
2022-10-26T01:50:44.945Z,97.94
2022-10-26T01:53:14.144Z,97.93
2022-10-26T01:55:47.852Z,98.08
2022-10-26T01:58:42.652Z,99.05
2022-10-26T02:01:48.547Z,99.24
2022-10-26T02:07:09.897Z,98.49
2022-10-26T02:10:00.694Z,98.29
2022-10-26T02:12:41.582Z,98.19
2022-10-26T02:15:26.681Z,98.19
2022-10-26T02:18:29.686Z,98.03
2022-10-26T02:21:03.461Z,97.74
2022-10-26T02:23:34.059Z,97.37
2022-10-26T02:26:04.926Z,97.25
2022-10-26T02:28:38.027Z,97.12
2022-10-26T02:31:06.869Z,97.23
2022-10-26T02:33:39.609Z,97.32
2022-10-26T02:36:14.084Z,97.09
2022-10-26T02:38:42.712Z,97.74
2022-10-26T02:41:12.585Z,98.00
2022-10-26T02:43:48.673Z,97.81
2022-10-26T02:46:18.669Z,97.74
2022-10-26T02:48:45.717Z,97.81
2022-10-26T02:51:39.211Z,98.11
2022-10-26T02:54:35.045Z,98.30
2022-10-26T02:57:12.801Z,98.47
2022-10-26T02:59:43.345Z,98.75
2022-10-26T03:02:11.979Z,99.61
2022-10-26T03:04:38.819Z,99.70
2022-10-26T03:07:05.611Z,100.00
2022-10-26T03:09:32.351Z,100.00
2022-10-26T03:11:59.204Z,99.95
2022-10-26T03:14:25.997Z,99.91
2022-10-26T03:16:52.911Z,99.77
2022-10-26T03:19:19.853Z,99.73
2022-10-26T03:21:46.639Z,99.43
2022-10-26T03:24:13.461Z,99.19
2022-10-26T03:26:40.206Z,99.82
2022-10-26T03:29:07.604Z,99.46
2022-10-26T03:31:34.409Z,99.17
2022-10-26T03:34:01.356Z,99.19
2022-10-26T03:36:28.148Z,99.59
2022-10-26T03:38:54.903Z,100.00
2022-10-26T03:41:21.597Z,100.00
2022-10-26T03:43:48.911Z,100.00
2022-10-26T03:46:15.746Z,100.00
2022-10-26T03:48:42.502Z,99.83
2022-10-26T03:51:09.281Z,99.64
2022-10-26T03:53:36.062Z,99.60
2022-10-26T03:56:03.101Z,99.66
2022-10-26T03:58:29.859Z,99.52
2022-10-26T04:00:56.746Z,100.00
2022-10-26T04:03:23.645Z,100.00
2022-10-26T04:05:50.579Z,100.00
2022-10-26T04:08:17.365Z,100.00
2022-10-26T04:10:47.206Z,99.99
2022-10-26T04:13:14.034Z,100.00
2022-10-26T04:15:41.006Z,99.83
2022-10-26T04:18:09.382Z,99.70
2022-10-26T04:20:36.822Z,99.60
2022-10-26T04:23:06.309Z,99.63
2022-10-26T04:25:33.848Z,99.73
2022-10-26T04:28:03.332Z,99.87
2022-10-26T04:30:30.983Z,99.74
2022-10-26T04:32:57.787Z,99.81
2022-10-26T04:35:24.603Z,99.56
2022-10-26T04:37:51.434Z,99.75
2022-10-26T04:40:18.233Z,99.88
2022-10-26T04:42:46.955Z,99.97
2022-10-26T04:45:15.860Z,99.95
2022-10-26T04:47:43.278Z,100.00
2022-10-26T04:50:12.383Z,100.00
2022-10-26T04:52:40.068Z,100.00
2022-10-26T04:55:07.509Z,100.00
2022-10-26T04:57:35.126Z,100.00
2022-10-26T05:00:03.471Z,100.00
2022-10-26T05:02:30.994Z,100.00
2022-10-26T05:04:57.904Z,100.00
2022-10-26T05:07:24.756Z,100.00
2022-10-26T05:09:51.630Z,100.00
2022-10-26T05:12:18.445Z,100.00
2022-10-26T05:14:45.228Z,100.00
2022-10-26T05:17:12.009Z,100.00
2022-10-26T05:19:39.066Z,100.00
2022-10-26T05:22:10.810Z,100.00
2022-10-26T05:24:37.534Z,100.00
2022-10-26T05:27:04.340Z,100.00
2022-10-26T05:29:31.104Z,100.00
2022-10-26T05:31:57.885Z,100.00
2022-10-26T05:34:24.643Z,100.00
2022-10-26T05:36:53.599Z,100.00
2022-10-26T05:39:21.709Z,100.00
2022-10-26T05:41:48.509Z,100.00
2022-10-26T05:44:15.340Z,100.00
2022-10-26T05:46:42.720Z,100.00
2022-10-26T05:49:09.732Z,100.00
2022-10-26T05:51:37.310Z,100.00
2022-10-26T05:54:04.245Z,100.00
2022-10-26T05:56:36.867Z,100.00
2022-10-26T05:59:12.084Z,100.00
2022-10-26T06:01:51.236Z,100.00
2022-10-26T06:04:24.227Z,100.00
2022-10-26T06:06:56.740Z,100.00
2022-10-26T06:09:24.030Z,100.00
2022-10-26T06:11:51.460Z,100.00
2022-10-26T06:14:18.467Z,100.00
2022-10-26T06:16:51.192Z,100.00
2022-10-26T06:19:30.032Z,100.00
2022-10-26T06:22:34.376Z,100.00
2022-10-26T06:25:33.514Z,100.00
2022-10-26T06:28:08.485Z,100.00
2022-10-26T06:30:35.400Z,100.00
2022-10-26T06:33:06.653Z,100.00
2022-10-26T06:36:10.904Z,100.00
2022-10-26T06:38:41.117Z,100.00
2022-10-26T06:41:08.138Z,100.00
2022-10-26T06:43:36.064Z,100.00
2022-10-26T06:46:14.582Z,100.00
2022-10-26T06:49:03.601Z,100.00
2022-10-26T06:51:31.737Z,100.00
2022-10-26T06:54:05.392Z,100.00
2022-10-26T06:56:32.634Z,100.00
2022-10-26T06:59:08.209Z,100.00
2022-10-26T07:01:35.671Z,100.00
2022-10-26T07:04:02.550Z,100.00
2022-10-26T07:20:00.672Z,100.00
2022-10-26T07:22:27.567Z,99.54
2022-10-26T07:24:56.963Z,98.64
2022-10-26T07:27:26.029Z,97.65
2022-10-26T07:29:52.852Z,96.83
2022-10-26T07:32:19.614Z,95.54
2022-10-26T07:34:46.331Z,94.47
2022-10-26T07:37:13.096Z,92.89
2022-10-26T07:39:39.803Z,90.24
2022-10-26T07:42:06.596Z,89.18
2022-10-26T07:44:33.444Z,87.65
2022-10-26T07:47:00.815Z,86.16
2022-10-26T07:49:27.979Z,84.58
2022-10-26T07:51:54.902Z,82.84
2022-10-26T07:54:21.635Z,80.43
2022-10-26T07:56:51.614Z,80.17
2022-10-26T07:59:18.710Z,80.93
2022-10-26T08:01:46.143Z,79.91
2022-10-26T08:04:12.978Z,80.00
2022-10-26T08:06:39.833Z,79.22
2022-10-26T08:09:06.694Z,78.21
2022-10-26T08:11:33.626Z,77.26
2022-10-26T08:14:00.407Z,75.01
2022-10-26T08:16:27.172Z,73.55
2022-10-26T08:18:57.167Z,70.85
2022-10-26T08:21:36.134Z,72.60
2022-10-26T08:24:03.382Z,74.42
2022-10-26T08:26:30.688Z,72.89
2022-10-26T08:28:57.518Z,72.32
2022-10-26T08:31:24.344Z,70.67
2022-10-26T08:33:53.323Z,69.01
2022-10-26T08:36:23.911Z,67.39
2022-10-26T08:38:50.830Z,69.03
2022-10-26T08:41:20.586Z,70.12
2022-10-26T08:43:57.126Z,67.48
2022-10-26T08:46:29.352Z,68.58
2022-10-26T08:49:02.417Z,68.93
2022-10-26T08:51:37.559Z,68.97
2022-10-26T08:54:20.942Z,69.33
2022-10-26T08:56:58.056Z,70.24
2022-10-26T08:59:39.059Z,69.03
2022-10-26T09:02:17.289Z,70.37
2022-10-26T09:04:44.716Z,69.62
2022-10-26T09:07:36.784Z,70.29
2022-10-26T09:10:11.242Z,69.47
2022-10-26T09:12:45.013Z,71.13
2022-10-26T09:15:27.013Z,70.34
2022-10-26T09:18:06.029Z,70.19
2022-10-26T09:20:42.802Z,70.50
2022-10-26T09:23:35.729Z,71.00
2022-10-26T09:26:04.069Z,71.24
2022-10-26T09:28:35.857Z,71.17
2022-10-26T09:31:04.323Z,70.54
2022-10-26T09:33:35.924Z,70.46
2022-10-26T09:36:03.755Z,71.10
2022-10-26T09:38:39.852Z,69.94
2022-10-26T09:41:15.778Z,68.32
2022-10-26T09:43:50.293Z,67.51
2022-10-26T09:46:25.056Z,68.39
2022-10-26T09:48:56.940Z,66.15
2022-10-26T09:51:24.246Z,64.99
2022-10-26T09:53:50.946Z,63.67
2022-10-26T09:56:18.504Z,62.63
2022-10-26T09:59:07.851Z,61.64
2022-10-26T10:01:38.584Z,64.12
2022-10-26T10:04:14.352Z,65.01
2022-10-26T10:06:41.280Z,64.52
2022-10-26T10:09:16.206Z,65.63
2022-10-26T10:11:57.365Z,67.29
2022-10-26T10:14:34.658Z,67.74
2022-10-26T10:17:08.405Z,68.56
2022-10-26T10:19:37.317Z,70.10
2022-10-26T10:22:16.231Z,70.89
2022-10-26T10:24:54.409Z,70.71
2022-10-26T10:27:21.632Z,70.39
2022-10-26T10:29:50.841Z,70.92
2022-10-26T10:32:23.007Z,72.04
2022-10-26T10:34:55.964Z,70.96
2022-10-26T10:37:28.740Z,70.75
2022-10-26T10:40:01.728Z,70.92
2022-10-26T10:42:32.754Z,72.09
2022-10-26T10:45:00.808Z,71.72
2022-10-26T10:47:31.561Z,71.29
2022-10-26T10:50:20.120Z,72.41
2022-10-26T10:52:47.630Z,73.12
2022-10-26T10:55:14.619Z,72.23
2022-10-26T10:58:01.415Z,72.87
2022-10-26T11:00:28.565Z,73.22
2022-10-26T11:03:23.358Z,74.05
2022-10-26T11:06:05.006Z,73.50
2022-10-26T11:08:44.665Z,72.81
2022-10-26T11:11:27.456Z,72.58
2022-10-26T11:14:13.859Z,73.10
2022-10-26T11:16:48.405Z,73.81
2022-10-26T11:19:42.162Z,73.74
2022-10-26T11:22:15.522Z,74.33
2022-10-26T11:24:50.753Z,74.21
2022-10-26T11:27:21.976Z,74.31
2022-10-26T11:30:14.870Z,75.46
2022-10-26T11:32:49.310Z,75.55
2022-10-26T11:35:27.093Z,75.32
2022-10-26T11:38:20.737Z,74.95
2022-10-26T11:41:27.127Z,74.00
2022-10-26T11:44:34.555Z,73.56
2022-10-26T11:47:06.065Z,73.47
2022-10-26T11:49:50.051Z,72.70
2022-10-26T11:52:24.332Z,73.15
2022-10-26T11:54:56.617Z,72.14
2022-10-26T11:57:25.723Z,71.03
2022-10-26T12:00:17.197Z,70.86
2022-10-26T12:02:51.629Z,70.29
2022-10-26T12:05:33.736Z,70.64
2022-10-26T12:08:06.650Z,70.62
2022-10-26T12:10:36.271Z,70.06
2022-10-26T12:13:18.189Z,68.21
2022-10-26T12:16:04.819Z,67.69
2022-10-26T12:18:55.057Z,67.06
2022-10-26T12:21:26.482Z,68.85
2022-10-26T12:24:16.294Z,69.10
2022-10-26T12:26:52.103Z,69.48
2022-10-26T12:29:42.869Z,69.18
2022-10-26T12:32:28.499Z,69.87
2022-10-26T12:34:55.222Z,71.81
2022-10-26T12:37:37.094Z,71.93
2022-10-26T12:40:38.654Z,72.18
2022-10-26T12:43:14.574Z,72.06
2022-10-26T12:46:13.789Z,72.18
2022-10-26T12:48:49.057Z,71.82
2022-10-26T12:51:21.755Z,71.31
2022-10-26T12:54:15.770Z,71.14
2022-10-26T12:57:05.667Z,70.67
2022-10-26T12:59:41.953Z,69.61
2022-10-26T13:02:34.431Z,68.58
2022-10-26T13:05:13.513Z,68.93
2022-10-26T13:07:41.483Z,70.56
2022-10-26T13:10:14.174Z,70.81
2022-10-26T13:12:57.500Z,71.48
2022-10-26T13:15:38.467Z,71.65
2022-10-26T13:18:08.109Z,71.46
2022-10-26T13:20:37.060Z,70.62
2022-10-26T13:23:16.075Z,70.60
2022-10-26T13:25:43.042Z,70.66
2022-10-26T13:28:29.740Z,70.98
2022-10-26T13:30:56.703Z,71.07
2022-10-26T13:33:34.039Z,71.09
2022-10-26T13:36:16.321Z,70.56
2022-10-26T13:38:45.576Z,71.42
2022-10-26T13:41:23.591Z,72.12
2022-10-26T13:43:52.117Z,72.74
2022-10-26T13:46:25.571Z,74.25
2022-10-26T13:48:58.855Z,74.98
2022-10-26T13:51:38.500Z,75.22
2022-10-26T13:54:30.310Z,75.19
2022-10-26T13:56:57.211Z,75.19
2022-10-26T13:59:26.467Z,75.80
2022-10-26T14:02:17.740Z,75.15
2022-10-26T14:04:52.075Z,75.18
2022-10-26T14:07:23.437Z,75.74
2022-10-26T14:09:55.979Z,75.39
2022-10-26T14:12:25.462Z,76.01
2022-10-26T14:14:53.791Z,75.92
2022-10-26T14:17:24.452Z,76.59
2022-10-26T14:19:52.448Z,77.12
2022-10-26T14:22:24.923Z,77.04
2022-10-26T14:27:25.291Z,77.92
2022-10-26T14:30:20.557Z,77.77
2022-10-26T14:32:40.741Z,78.27
2022-10-26T14:35:12.846Z,79.01
2022-10-26T14:38:05.444Z,79.06
2022-10-26T14:40:36.049Z,79.25
2022-10-26T14:43:05.562Z,79.43
2022-10-26T14:45:48.420Z,79.95
2022-10-26T14:48:30.426Z,79.98
2022-10-26T14:51:19.734Z,80.20
2022-10-26T14:53:51.901Z,80.16
2022-10-26T14:56:40.362Z,80.54
2022-10-26T14:59:22.577Z,80.92
2022-10-26T15:02:10.722Z,81.85
2022-10-26T15:04:39.702Z,82.42
2022-10-26T15:07:16.732Z,83.13
2022-10-26T15:09:51.448Z,82.77
2022-10-26T15:12:33.914Z,82.73
2022-10-26T15:17:56.981Z,84.00
2022-10-26T15:20:26.564Z,84.23
2022-10-26T15:23:03.167Z,84.15
2022-10-26T15:25:33.967Z,84.78
2022-10-26T15:28:22.101Z,84.92
2022-10-26T15:31:27.737Z,85.48
2022-10-26T15:33:54.707Z,85.87
2022-10-26T15:36:28.451Z,86.31
2022-10-26T15:38:55.837Z,86.40
2022-10-26T15:41:29.261Z,86.55
2022-10-26T15:44:01.580Z,86.68
2022-10-26T15:46:46.947Z,86.65
2022-10-26T15:49:19.666Z,87.37
2022-10-26T15:51:48.047Z,87.77
2022-10-26T15:54:15.210Z,87.34
2022-10-26T15:56:46.092Z,87.37
2022-10-26T15:59:18.209Z,88.23
2022-10-26T16:01:45.426Z,88.47
2022-10-26T16:04:12.817Z,88.90
2022-10-26T16:06:41.425Z,89.48
2022-10-26T16:09:14.584Z,89.31
2022-10-26T16:11:44.915Z,89.67
2022-10-26T16:14:13.126Z,89.96
2022-10-26T16:16:41.373Z,90.05
2022-10-26T16:19:30.389Z,90.08
2022-10-26T16:21:57.837Z,90.21
2022-10-26T16:24:26.400Z,90.27
2022-10-26T16:26:54.446Z,90.68
2022-10-26T16:29:24.005Z,90.72
2022-10-26T16:31:51.611Z,90.61
2022-10-26T16:34:20.300Z,90.69
2022-10-26T16:36:48.193Z,90.82
2022-10-26T16:39:16.542Z,91.12
2022-10-26T16:41:44.993Z,91.33
2022-10-26T16:44:13.885Z,91.60
2022-10-26T16:46:42.134Z,91.87
2022-10-26T16:49:09.635Z,92.28
2022-10-26T16:51:36.940Z,92.28
2022-10-26T16:54:04.573Z,91.77
2022-10-26T16:56:34.127Z,92.00
2022-10-26T16:59:04.449Z,91.90
2022-10-26T17:01:32.637Z,91.98
2022-10-26T17:04:01.176Z,92.09
2022-10-26T17:06:28.701Z,92.20
2022-10-26T17:08:58.058Z,92.32
2022-10-26T17:11:25.888Z,92.33
2022-10-26T17:13:55.085Z,92.30
2022-10-26T17:16:25.146Z,92.48
2022-10-26T17:18:54.057Z,92.56
2022-10-26T17:21:34.726Z,92.54
2022-10-26T17:24:03.231Z,92.68
2022-10-26T17:26:31.098Z,92.85
2022-10-26T17:28:59.627Z,93.04
2022-10-26T17:31:30.912Z,93.43
2022-10-26T17:34:00.621Z,93.46
2022-10-26T17:36:30.475Z,93.83
2022-10-26T17:39:00.800Z,93.85
2022-10-26T17:41:33.357Z,93.99
2022-10-26T17:44:01.204Z,94.25
2022-10-26T17:46:29.476Z,94.32
2022-10-26T17:49:00.130Z,94.42
2022-10-26T17:51:30.222Z,94.41
2022-10-26T17:53:59.256Z,94.57
2022-10-26T17:56:32.310Z,94.71
2022-10-26T17:59:04.850Z,95.18
2022-10-26T18:01:33.399Z,95.44
2022-10-26T18:04:02.322Z,95.75
2022-10-26T18:06:30.119Z,96.14
2022-10-26T18:09:00.000Z,96.58
2022-10-26T18:11:28.841Z,96.80
2022-10-26T18:13:58.378Z,97.10
2022-10-26T18:16:30.195Z,97.02
2022-10-26T18:19:04.731Z,97.26
2022-10-26T18:21:37.802Z,97.32
2022-10-26T18:24:10.106Z,97.36
2022-10-26T18:26:38.222Z,97.41
2022-10-26T18:29:06.898Z,97.80
2022-10-26T18:31:38.019Z,97.69
2022-10-26T18:34:07.010Z,98.17
2022-10-26T18:39:09.789Z,98.32
2022-10-26T18:41:38.541Z,98.29
2022-10-26T18:44:06.916Z,98.42
2022-10-26T18:46:41.723Z,98.68
2022-10-26T18:49:10.987Z,98.92
2022-10-26T18:51:40.027Z,100.00
2022-10-26T18:54:08.132Z,100.00
2022-10-26T18:56:38.143Z,100.00
2022-10-26T18:59:06.307Z,100.00
2022-10-26T19:01:40.430Z,100.00
2022-10-26T19:04:11.212Z,100.00
2022-10-26T19:06:45.567Z,100.00
2022-10-26T19:09:18.213Z,100.00
2022-10-26T19:11:49.780Z,100.00
2022-10-26T19:14:18.130Z,100.00
2022-10-26T19:16:47.526Z,100.00
2022-10-26T19:19:18.852Z,100.00
2022-10-26T19:21:50.066Z,100.00
2022-10-26T19:24:21.266Z,100.00
2022-10-26T19:26:51.273Z,100.00
2022-10-26T19:29:19.913Z,100.00
2022-10-26T19:31:51.360Z,100.00
2022-10-26T19:34:20.422Z,100.00
2022-10-26T19:36:50.331Z,100.00
2022-10-26T19:39:19.291Z,100.00
2022-10-26T19:41:48.246Z,100.00
2022-10-26T19:44:17.316Z,100.00
2022-10-26T19:46:47.633Z,100.00
2022-10-26T19:49:19.231Z,100.00
2022-10-26T19:51:50.243Z,100.00
2022-10-26T19:54:20.429Z,100.00
2022-10-26T19:56:48.484Z,100.00
2022-10-26T19:59:17.595Z,100.00
2022-10-26T20:01:46.463Z,100.00
2022-10-26T20:04:14.665Z,100.00
2022-10-26T20:06:50.199Z,100.00
2022-10-26T20:09:19.431Z,100.00
2022-10-26T20:11:47.834Z,100.00
2022-10-26T20:14:16.230Z,100.00
2022-10-26T20:16:45.240Z,100.00
2022-10-26T20:19:13.582Z,100.00
2022-10-26T20:21:41.562Z,100.00
2022-10-26T20:24:10.417Z,100.00
2022-10-26T20:26:41.976Z,100.00
2022-10-26T20:29:10.470Z,100.00
2022-10-26T20:31:39.284Z,100.00
2022-10-26T20:34:07.190Z,100.00
2022-10-26T20:36:34.981Z,100.00
2022-10-26T20:39:05.061Z,100.00
2022-10-26T20:41:32.896Z,100.00
2022-10-26T20:44:01.440Z,100.00
2022-10-26T20:46:29.665Z,100.00
2022-10-26T20:48:57.759Z,100.00
2022-10-26T20:51:36.716Z,100.00
2022-10-26T20:54:17.938Z,100.00
2022-10-26T20:56:46.163Z,100.00
2022-10-26T20:59:30.224Z,100.00
2022-10-26T21:01:57.138Z,100.00
2022-10-26T21:04:23.908Z,100.00
2022-10-26T21:06:50.927Z,100.00
2022-10-26T21:09:17.744Z,100.00
2022-10-26T21:11:47.632Z,100.00
2022-10-26T21:14:14.373Z,100.00
2022-10-26T21:16:41.298Z,100.00
2022-10-26T21:19:08.449Z,100.00
2022-10-26T21:21:35.274Z,100.00
2022-10-26T21:24:02.104Z,100.00
2022-10-26T21:26:28.921Z,100.00
2022-10-26T21:28:55.723Z,100.00
2022-10-26T21:31:22.618Z,100.00
2022-10-26T21:33:49.404Z,100.00
2022-10-26T21:36:16.408Z,100.00
2022-10-26T21:38:45.702Z,100.00
2022-10-26T21:41:18.315Z,100.00
2022-10-26T21:43:47.889Z,100.00
2022-10-26T21:46:16.183Z,100.00
2022-10-26T21:48:43.138Z,100.00
2022-10-26T21:51:14.154Z,100.00
2022-10-26T21:53:41.994Z,100.00
2022-10-26T21:56:12.535Z,100.00
2022-10-26T21:58:40.469Z,100.00
2022-10-26T22:01:27.750Z,100.00
2022-10-26T22:03:54.814Z,100.00
2022-10-26T22:06:21.853Z,100.00
2022-10-26T22:08:48.819Z,100.00
2022-10-26T22:11:18.998Z,100.00
2022-10-26T22:13:47.128Z,100.00
2022-10-26T22:16:16.743Z,100.00
2022-10-26T22:18:45.498Z,100.00
2022-10-26T22:21:14.013Z,100.00
2022-10-26T22:23:42.635Z,100.00
2022-10-26T22:26:16.090Z,100.00
2022-10-26T22:28:44.738Z,100.00
2022-10-26T22:31:14.634Z,100.00
2022-10-26T22:33:42.117Z,100.00
2022-10-26T22:36:11.385Z,100.00
2022-10-26T22:38:38.751Z,100.00
2022-10-26T22:41:05.952Z,100.00
2022-10-26T22:43:32.751Z,100.00
2022-10-26T22:46:03.595Z,100.00
2022-10-26T22:48:30.627Z,100.00
2022-10-26T22:50:57.558Z,100.00
2022-10-26T22:53:24.810Z,100.00
2022-10-26T22:55:51.700Z,100.00
2022-10-26T22:58:18.438Z,100.00
2022-10-26T23:00:45.349Z,100.00
2022-10-26T23:03:12.198Z,100.00
2022-10-26T23:05:45.674Z,100.00
2022-10-26T23:08:12.600Z,100.00
2022-10-26T23:10:40.065Z,100.00
2022-10-26T23:13:06.968Z,100.00
2022-10-26T23:15:33.784Z,100.00
2022-10-26T23:18:00.619Z,100.00
2022-10-26T23:20:27.663Z,100.00
2022-10-26T23:22:54.533Z,100.00
2022-10-26T23:25:21.246Z,100.00
2022-10-26T23:27:48.050Z,100.00
2022-10-26T23:30:15.037Z,100.00
2022-10-26T23:32:41.855Z,100.00
2022-10-26T23:35:08.804Z,100.00
2022-10-26T23:37:35.554Z,100.00
2022-10-26T23:40:02.455Z,100.00
2022-10-26T23:42:29.638Z,100.00
2022-10-26T23:44:56.348Z,100.00
2022-10-26T23:47:23.143Z,100.00
2022-10-26T23:49:50.267Z,100.00
2022-10-26T23:52:17.137Z,100.00
2022-10-26T23:54:43.990Z,100.00
2022-10-26T23:57:10.798Z,100.00
2022-10-26T23:59:37.619Z,100.00
